createdAt,value
2022-10-06T00:00:39.915Z,1012.81
2022-10-06T00:01:39.953Z,1012.81
2022-10-06T00:02:39.922Z,1012.84
2022-10-06T00:03:39.887Z,1012.82
2022-10-06T00:04:39.873Z,1012.83
2022-10-06T00:05:39.875Z,1012.81
2022-10-06T00:06:39.851Z,1012.83
2022-10-06T00:07:39.841Z,1012.82
2022-10-06T00:08:39.843Z,1012.85
2022-10-06T00:09:39.821Z,1012.85
2022-10-06T00:10:39.843Z,1012.83
2022-10-06T00:11:39.800Z,1012.87
2022-10-06T00:12:39.785Z,1012.85
2022-10-06T00:13:39.776Z,1012.84
2022-10-06T00:14:39.765Z,1012.83
2022-10-06T00:15:39.835Z,1012.89
2022-10-06T00:16:39.743Z,1012.84
2022-10-06T00:17:39.731Z,1012.90
2022-10-06T00:18:39.720Z,1012.93
2022-10-06T00:19:39.712Z,1012.91
2022-10-06T00:20:39.769Z,1012.95
2022-10-06T00:21:39.738Z,1012.96
2022-10-06T00:22:39.676Z,1012.99
2022-10-06T00:23:39.672Z,1013.01
2022-10-06T00:24:39.656Z,1013.02
2022-10-06T00:25:39.659Z,1013.02
2022-10-06T00:26:39.651Z,1013.04
2022-10-06T00:27:39.630Z,1013.02
2022-10-06T00:28:39.690Z,1013.08
2022-10-06T00:29:39.602Z,1013.08
2022-10-06T00:30:39.617Z,1013.07
2022-10-06T00:31:39.582Z,1013.04
2022-10-06T00:32:39.569Z,1013.08
2022-10-06T00:33:39.583Z,1013.06
2022-10-06T00:34:39.547Z,1013.02
2022-10-06T00:35:39.536Z,1013.05
2022-10-06T00:36:39.537Z,1013.06
2022-10-06T00:37:39.538Z,1013.11
2022-10-06T00:38:39.503Z,1013.07
2022-10-06T00:39:39.490Z,1013.11
2022-10-06T00:40:39.482Z,1013.08
2022-10-06T00:41:39.483Z,1013.11
2022-10-06T00:42:39.475Z,1013.15
2022-10-06T00:43:39.449Z,1013.13
2022-10-06T00:44:39.472Z,1013.14
2022-10-06T00:45:39.436Z,1013.18
2022-10-06T00:46:39.482Z,1013.13
2022-10-06T00:47:39.404Z,1013.16
2022-10-06T00:48:39.393Z,1013.15
2022-10-06T00:49:39.381Z,1013.16
2022-10-06T00:50:39.374Z,1013.15
2022-10-06T00:51:39.371Z,1013.15
2022-10-06T00:52:39.349Z,1013.13
2022-10-06T00:53:39.337Z,1013.15
2022-10-06T00:54:39.329Z,1013.20
2022-10-06T00:55:39.319Z,1013.21
2022-10-06T00:56:39.316Z,1013.22
2022-10-06T00:57:39.294Z,1013.16
2022-10-06T00:58:39.300Z,1013.15
2022-10-06T00:59:39.271Z,1013.16
2022-10-06T01:00:39.264Z,1013.18
2022-10-06T01:01:39.320Z,1013.20
2022-10-06T01:02:39.330Z,1013.19
2022-10-06T01:03:39.229Z,1013.18
2022-10-06T01:04:39.218Z,1013.17
2022-10-06T01:05:39.207Z,1013.20
2022-10-06T01:06:39.209Z,1013.23
2022-10-06T01:07:39.185Z,1013.27
2022-10-06T01:08:39.174Z,1013.25
2022-10-06T01:09:39.162Z,1013.28
2022-10-06T01:10:39.170Z,1013.29
2022-10-06T01:11:39.145Z,1013.27
2022-10-06T01:12:39.131Z,1013.25
2022-10-06T01:13:39.119Z,1013.28
2022-10-06T01:14:39.124Z,1013.28
2022-10-06T01:15:39.152Z,1013.32
2022-10-06T01:16:39.091Z,1013.28
2022-10-06T01:17:39.075Z,1013.31
2022-10-06T01:18:39.065Z,1013.34
2022-10-06T01:19:39.052Z,1013.33
2022-10-06T01:20:39.067Z,1013.33
2022-10-06T01:21:39.031Z,1013.33
2022-10-06T01:22:39.029Z,1013.33
2022-10-06T01:23:39.007Z,1013.26
2022-10-06T01:24:39.004Z,1013.30
2022-10-06T01:25:38.986Z,1013.36
2022-10-06T01:26:38.988Z,1013.39
2022-10-06T01:27:38.969Z,1013.41
2022-10-06T01:28:39.045Z,1013.39
2022-10-06T01:29:38.943Z,1013.39
2022-10-06T01:30:38.959Z,1013.40
2022-10-06T01:31:38.950Z,1013.42
2022-10-06T01:32:38.915Z,1013.44
2022-10-06T01:33:38.899Z,1013.43
2022-10-06T01:34:38.898Z,1013.47
2022-10-06T01:35:38.876Z,1013.47
2022-10-06T01:36:38.885Z,1013.48
2022-10-06T01:37:38.862Z,1013.44
2022-10-06T01:38:38.846Z,1013.43
2022-10-06T01:39:38.833Z,1013.42
2022-10-06T01:40:38.829Z,1013.42
2022-10-06T01:41:38.836Z,1013.43
2022-10-06T01:42:38.804Z,1013.47
2022-10-06T01:43:38.794Z,1013.48
2022-10-06T01:44:38.786Z,1013.46
2022-10-06T01:45:38.767Z,1013.51
2022-10-06T01:46:38.874Z,1013.49
2022-10-06T01:47:38.747Z,1013.53
2022-10-06T01:48:38.737Z,1013.47
2022-10-06T01:49:38.740Z,1013.47
2022-10-06T01:50:38.730Z,1013.47
2022-10-06T01:51:38.707Z,1013.47
2022-10-06T01:52:38.693Z,1013.47
2022-10-06T01:53:38.681Z,1013.47
2022-10-06T01:54:38.671Z,1013.49
2022-10-06T01:55:45.714Z,1013.47
2022-10-06T01:56:38.649Z,1013.47
2022-10-06T01:57:38.638Z,1013.52
2022-10-06T01:58:38.634Z,1013.53
2022-10-06T01:59:38.616Z,1013.57
2022-10-06T02:00:38.620Z,1013.56
2022-10-06T02:01:38.647Z,1013.55
2022-10-06T02:02:38.603Z,1013.51
2022-10-06T02:03:38.573Z,1013.52
2022-10-06T02:04:38.565Z,1013.52
2022-10-06T02:05:38.563Z,1013.56
2022-10-06T02:06:38.579Z,1013.55
2022-10-06T02:07:38.532Z,1013.50
2022-10-06T02:08:38.520Z,1013.48
2022-10-06T02:09:38.507Z,1013.46
2022-10-06T02:10:38.510Z,1013.48
2022-10-06T02:11:38.484Z,1013.50
2022-10-06T02:12:38.475Z,1013.50
2022-10-06T02:13:38.463Z,1013.49
2022-10-06T02:14:38.455Z,1013.53
2022-10-06T02:15:38.521Z,1013.53
2022-10-06T02:16:38.433Z,1013.57
2022-10-06T02:17:38.419Z,1013.54
2022-10-06T02:18:38.427Z,1013.53
2022-10-06T02:19:38.397Z,1013.51
2022-10-06T02:20:38.397Z,1013.54
2022-10-06T02:21:38.375Z,1013.59
2022-10-06T02:22:38.366Z,1013.59
2022-10-06T02:23:38.354Z,1013.60
2022-10-06T02:24:38.346Z,1013.64
2022-10-06T02:25:38.343Z,1013.64
2022-10-06T02:26:38.323Z,1013.59
2022-10-06T02:27:38.310Z,1013.63
2022-10-06T02:28:38.317Z,1013.70
2022-10-06T02:29:38.291Z,1013.72
2022-10-06T02:30:38.289Z,1013.76
2022-10-06T02:31:38.330Z,1013.74
2022-10-06T02:32:38.259Z,1013.75
2022-10-06T02:33:38.243Z,1013.73
2022-10-06T02:34:38.252Z,1013.77
2022-10-06T02:35:38.236Z,1013.71
2022-10-06T02:36:38.213Z,1013.77
2022-10-06T02:37:38.199Z,1013.75
2022-10-06T02:38:38.195Z,1013.78
2022-10-06T02:39:38.176Z,1013.79
2022-10-06T02:40:38.183Z,1013.82
2022-10-06T02:41:38.155Z,1013.81
2022-10-06T02:42:38.146Z,1013.82
2022-10-06T02:43:38.133Z,1013.79
2022-10-06T02:44:38.127Z,1013.82
2022-10-06T02:45:38.125Z,1013.84
2022-10-06T02:46:38.123Z,1013.82
2022-10-06T02:47:38.094Z,1013.85
2022-10-06T02:48:38.081Z,1013.91
2022-10-06T02:49:38.068Z,1013.87
2022-10-06T02:50:38.083Z,1013.91
2022-10-06T02:51:38.046Z,1013.90
2022-10-06T02:52:38.036Z,1013.93
2022-10-06T02:53:38.024Z,1013.95
2022-10-06T02:54:38.014Z,1013.96
2022-10-06T02:55:38.012Z,1013.99
2022-10-06T02:56:37.999Z,1013.95
2022-10-06T02:57:37.980Z,1013.96
2022-10-06T02:58:37.972Z,1013.95
2022-10-06T02:59:37.957Z,1014.00
2022-10-06T03:00:37.959Z,1014.01
2022-10-06T03:01:38.075Z,1014.00
2022-10-06T03:02:38.109Z,1013.99
2022-10-06T03:03:37.914Z,1013.99
2022-10-06T03:04:37.905Z,1014.01
2022-10-06T03:05:37.903Z,1014.03
2022-10-06T03:06:37.898Z,1014.06
2022-10-06T03:07:37.871Z,1014.05
2022-10-06T03:08:37.876Z,1014.07
2022-10-06T03:09:37.851Z,1014.11
2022-10-06T03:10:37.847Z,1014.09
2022-10-06T03:11:37.827Z,1014.12
2022-10-06T03:12:37.818Z,1014.19
2022-10-06T03:13:37.804Z,1014.17
2022-10-06T03:14:37.796Z,1014.14
2022-10-06T03:15:37.792Z,1014.20
2022-10-06T03:16:37.773Z,1014.18
2022-10-06T03:17:37.762Z,1014.18
2022-10-06T03:18:37.752Z,1014.19
2022-10-06T03:19:37.739Z,1014.25
2022-10-06T03:20:37.742Z,1014.28
2022-10-06T03:21:37.721Z,1014.25
2022-10-06T03:22:37.724Z,1014.27
2022-10-06T03:23:37.697Z,1014.31
2022-10-06T03:24:37.688Z,1014.34
2022-10-06T03:25:37.685Z,1014.32
2022-10-06T03:26:37.666Z,1014.39
2022-10-06T03:27:37.651Z,1014.38
2022-10-06T03:28:37.724Z,1014.38
2022-10-06T03:29:37.630Z,1014.39
2022-10-06T03:30:37.636Z,1014.44
2022-10-06T03:31:37.635Z,1014.47
2022-10-06T03:32:37.608Z,1014.48
2022-10-06T03:33:37.587Z,1014.53
2022-10-06T03:34:37.605Z,1014.58
2022-10-06T03:35:37.576Z,1014.59
2022-10-06T03:36:37.557Z,1014.62
2022-10-06T03:37:37.542Z,1014.66
2022-10-06T03:38:37.551Z,1014.70
2022-10-06T03:39:37.520Z,1014.75
2022-10-06T03:40:37.522Z,1014.76
2022-10-06T03:41:37.499Z,1014.83
2022-10-06T03:42:37.490Z,1014.89
2022-10-06T03:43:37.483Z,1014.96
2022-10-06T03:44:37.469Z,1014.98
2022-10-06T03:45:37.482Z,1014.92
2022-10-06T03:46:37.533Z,1014.94
2022-10-06T03:47:37.450Z,1014.93
2022-10-06T03:48:37.446Z,1015.03
2022-10-06T03:49:37.430Z,1015.13
2022-10-06T03:50:37.430Z,1015.18
2022-10-06T03:51:37.389Z,1015.18
2022-10-06T03:52:37.380Z,1015.20
2022-10-06T03:53:37.366Z,1015.28
2022-10-06T03:54:37.375Z,1015.17
2022-10-06T03:55:37.355Z,1015.25
2022-10-06T03:56:37.339Z,1015.19
2022-10-06T03:57:37.323Z,1015.16
2022-10-06T03:58:37.314Z,1015.17
2022-10-06T03:59:37.301Z,1015.15
2022-10-06T04:00:37.355Z,1015.17
2022-10-06T04:01:37.307Z,1015.23
2022-10-06T04:02:37.270Z,1015.24
2022-10-06T04:03:37.257Z,1015.32
2022-10-06T04:04:37.249Z,1015.38
2022-10-06T04:05:37.249Z,1015.40
2022-10-06T04:06:37.230Z,1015.37
2022-10-06T04:07:37.215Z,1015.46
2022-10-06T04:08:37.205Z,1015.48
2022-10-06T04:09:37.192Z,1015.51
2022-10-06T04:10:37.212Z,1015.50
2022-10-06T04:11:37.172Z,1015.47
2022-10-06T04:12:37.178Z,1015.45
2022-10-06T04:13:37.151Z,1015.48
2022-10-06T04:14:37.141Z,1015.56
2022-10-06T04:15:37.137Z,1015.60
2022-10-06T04:16:37.141Z,1015.59
2022-10-06T04:17:37.104Z,1015.60
2022-10-06T04:18:37.095Z,1015.66
2022-10-06T04:19:37.085Z,1015.69
2022-10-06T04:20:37.099Z,1015.73
2022-10-06T04:21:37.063Z,1015.76
2022-10-06T04:22:37.076Z,1015.69
2022-10-06T04:23:37.039Z,1015.69
2022-10-06T04:24:37.055Z,1015.69
2022-10-06T04:25:37.033Z,1015.74
2022-10-06T04:26:37.022Z,1015.72
2022-10-06T04:27:36.995Z,1015.75
2022-10-06T04:28:37.059Z,1015.78
2022-10-06T04:29:36.973Z,1015.82
2022-10-06T04:30:36.964Z,1015.88
2022-10-06T04:31:37.093Z,1015.90
2022-10-06T04:32:36.942Z,1015.89
2022-10-06T04:33:36.931Z,1015.97
2022-10-06T04:34:36.921Z,1015.88
2022-10-06T04:35:36.907Z,1015.86
2022-10-06T04:36:36.907Z,1015.89
2022-10-06T04:37:36.887Z,1015.85
2022-10-06T04:38:36.876Z,1015.91
2022-10-06T04:39:36.864Z,1015.93
2022-10-06T04:40:36.854Z,1015.91
2022-10-06T04:41:36.859Z,1015.94
2022-10-06T04:42:36.854Z,1015.98
2022-10-06T04:43:36.820Z,1015.98
2022-10-06T04:44:36.816Z,1015.96
2022-10-06T04:45:36.869Z,1016.02
2022-10-06T04:46:44.956Z,1016.05
2022-10-06T04:47:37.780Z,1016.09
2022-10-06T04:48:36.779Z,1016.17
2022-10-06T04:49:36.755Z,1016.19
2022-10-06T04:50:36.773Z,1016.20
2022-10-06T04:51:36.736Z,1016.22
2022-10-06T04:52:36.725Z,1016.25
2022-10-06T04:53:36.713Z,1016.23
2022-10-06T04:54:36.699Z,1016.24
2022-10-06T04:55:36.701Z,1016.19
2022-10-06T04:56:36.679Z,1016.15
2022-10-06T04:57:36.675Z,1016.20
2022-10-06T04:58:36.674Z,1016.21
2022-10-06T04:59:36.647Z,1016.18
2022-10-06T05:00:36.697Z,1016.28
2022-10-06T05:01:36.640Z,1016.27
2022-10-06T05:02:36.709Z,1016.27
2022-10-06T05:03:36.601Z,1016.30
2022-10-06T05:04:36.593Z,1016.37
2022-10-06T05:05:36.597Z,1016.38
2022-10-06T05:06:36.613Z,1016.35
2022-10-06T05:07:36.562Z,1016.35
2022-10-06T05:08:36.555Z,1016.40
2022-10-06T05:09:36.539Z,1016.45
2022-10-06T05:10:36.535Z,1016.56
2022-10-06T05:11:36.518Z,1016.52
2022-10-06T05:12:36.502Z,1016.58
2022-10-06T05:13:36.494Z,1016.60
2022-10-06T05:14:36.596Z,1016.60
2022-10-06T05:15:36.482Z,1016.65
2022-10-06T05:16:36.547Z,1016.67
2022-10-06T05:17:36.454Z,1016.76
2022-10-06T05:18:36.436Z,1016.76
2022-10-06T05:19:36.428Z,1016.76
2022-10-06T05:20:36.427Z,1016.79
2022-10-06T05:21:36.407Z,1016.84
2022-10-06T05:22:36.393Z,1016.82
2022-10-06T05:23:36.384Z,1016.82
2022-10-06T05:24:36.379Z,1016.83
2022-10-06T05:25:36.374Z,1016.86
2022-10-06T05:26:36.351Z,1016.87
2022-10-06T05:27:36.340Z,1016.89
2022-10-06T05:28:36.377Z,1016.92
2022-10-06T05:29:36.318Z,1016.90
2022-10-06T05:30:36.345Z,1016.91
2022-10-06T05:31:36.390Z,1016.97
2022-10-06T05:32:36.408Z,1016.97
2022-10-06T05:33:36.278Z,1017.01
2022-10-06T05:34:36.261Z,1017.00
2022-10-06T05:35:36.253Z,1017.04
2022-10-06T05:36:36.253Z,1017.09
2022-10-06T05:37:36.233Z,1017.12
2022-10-06T05:38:36.219Z,1017.13
2022-10-06T05:39:36.210Z,1017.16
2022-10-06T05:40:36.198Z,1017.20
2022-10-06T05:41:36.197Z,1017.26
2022-10-06T05:42:36.184Z,1017.28
2022-10-06T05:43:36.167Z,1017.34
2022-10-06T05:44:36.155Z,1017.36
2022-10-06T05:45:36.168Z,1017.41
2022-10-06T05:46:36.260Z,1017.46
2022-10-06T05:47:36.125Z,1017.47
2022-10-06T05:48:36.109Z,1017.46
2022-10-06T05:49:36.100Z,1017.51
2022-10-06T05:50:36.088Z,1017.49
2022-10-06T05:51:36.093Z,1017.52
2022-10-06T05:52:36.092Z,1017.59
2022-10-06T05:53:36.056Z,1017.59
2022-10-06T05:54:36.044Z,1017.61
2022-10-06T05:55:36.033Z,1017.65
2022-10-06T05:56:36.034Z,1017.69
2022-10-06T05:57:36.023Z,1017.70
2022-10-06T05:58:36.254Z,1017.79
2022-10-06T05:59:35.990Z,1017.77
2022-10-06T06:00:35.978Z,1017.82
2022-10-06T06:01:36.029Z,1017.85
2022-10-06T06:02:36.080Z,1017.85
2022-10-06T06:03:35.945Z,1017.92
2022-10-06T06:04:35.967Z,1017.94
2022-10-06T06:05:35.925Z,1018.04
2022-10-06T06:06:35.925Z,1018.04
2022-10-06T06:07:35.911Z,1018.11
2022-10-06T06:08:35.889Z,1018.07
2022-10-06T06:09:35.879Z,1018.15
2022-10-06T06:10:35.867Z,1018.16
2022-10-06T06:11:35.868Z,1018.22
2022-10-06T06:12:35.854Z,1018.34
2022-10-06T06:13:35.842Z,1018.31
2022-10-06T06:14:35.823Z,1018.30
2022-10-06T06:15:35.815Z,1018.38
2022-10-06T06:16:35.844Z,1018.39
2022-10-06T06:17:35.793Z,1018.38
2022-10-06T06:18:35.800Z,1018.46
2022-10-06T06:19:35.771Z,1018.54
2022-10-06T06:20:35.765Z,1018.50
2022-10-06T06:21:35.761Z,1018.56
2022-10-06T06:22:35.738Z,1018.62
2022-10-06T06:23:35.727Z,1018.61
2022-10-06T06:24:35.716Z,1018.62
2022-10-06T06:25:35.708Z,1018.54
2022-10-06T06:26:35.705Z,1018.62
2022-10-06T06:27:35.689Z,1018.70
2022-10-06T06:28:35.742Z,1018.73
2022-10-06T06:29:35.699Z,1018.77
2022-10-06T06:30:35.661Z,1018.74
2022-10-06T06:31:35.753Z,1018.83
2022-10-06T06:32:35.630Z,1018.76
2022-10-06T06:33:35.620Z,1018.78
2022-10-06T06:34:35.636Z,1018.84
2022-10-06T06:35:35.609Z,1018.86
2022-10-06T06:36:35.657Z,1018.89
2022-10-06T06:37:35.578Z,1018.84
2022-10-06T06:38:35.565Z,1018.90
2022-10-06T06:39:35.560Z,1018.89
2022-10-06T06:40:35.556Z,1018.97
2022-10-06T06:41:35.538Z,1019.00
2022-10-06T06:42:35.521Z,1019.00
2022-10-06T06:43:35.513Z,1019.01
2022-10-06T06:44:35.498Z,1019.02
2022-10-06T06:45:35.499Z,1019.05
2022-10-06T06:47:35.467Z,1019.05
2022-10-06T06:48:35.462Z,1019.14
2022-10-06T06:49:35.446Z,1019.18
2022-10-06T06:50:35.462Z,1019.23
2022-10-06T06:51:35.427Z,1019.26
2022-10-06T06:52:35.413Z,1019.30
2022-10-06T06:53:35.403Z,1019.26
2022-10-06T06:54:35.391Z,1019.23
2022-10-06T06:55:35.397Z,1019.32
2022-10-06T06:56:35.524Z,1019.32
2022-10-06T06:57:35.362Z,1019.36
2022-10-06T06:58:35.348Z,1019.38
2022-10-06T06:59:35.339Z,1019.49
2022-10-06T07:00:36.331Z,1019.45
2022-10-06T07:01:35.378Z,1019.44
2022-10-06T07:02:35.376Z,1019.55
2022-10-06T07:03:58.635Z,1019.54
2022-10-06T07:04:36.285Z,1019.58
2022-10-06T07:05:35.291Z,1019.62
2022-10-06T07:06:35.353Z,1019.63
2022-10-06T07:07:35.259Z,1019.62
2022-10-06T07:08:35.244Z,1019.67
2022-10-06T07:09:35.235Z,1019.63
2022-10-06T07:10:35.236Z,1019.75
2022-10-06T07:11:35.213Z,1019.69
2022-10-06T07:12:35.203Z,1019.77
2022-10-06T07:13:35.193Z,1019.78
2022-10-06T07:14:35.181Z,1019.82
2022-10-06T07:15:35.212Z,1019.87
2022-10-06T07:16:35.162Z,1019.87
2022-10-06T07:17:35.150Z,1019.83
2022-10-06T07:18:35.137Z,1019.96
2022-10-06T07:19:35.128Z,1019.90
2022-10-06T07:20:35.129Z,1019.92
2022-10-06T07:21:35.107Z,1019.94
2022-10-06T07:22:35.117Z,1020.01
2022-10-06T07:23:35.099Z,1020.08
2022-10-06T07:24:35.077Z,1020.03
2022-10-06T07:25:35.075Z,1020.05
2022-10-06T07:26:35.056Z,1020.08
2022-10-06T07:27:35.046Z,1020.17
2022-10-06T07:28:35.075Z,1020.17
2022-10-06T07:29:35.082Z,1020.17
2022-10-06T07:30:38.470Z,1020.21
2022-10-06T07:31:36.098Z,1020.09
2022-10-06T07:32:34.993Z,1020.26
2022-10-06T07:33:34.984Z,1020.22
2022-10-06T07:34:35.014Z,1020.27
2022-10-06T07:35:34.996Z,1020.18
2022-10-06T07:36:34.952Z,1020.24
2022-10-06T07:37:34.943Z,1020.21
2022-10-06T07:38:34.949Z,1020.34
2022-10-06T07:39:34.939Z,1020.26
2022-10-06T07:40:34.913Z,1020.38
2022-10-06T07:41:34.902Z,1020.33
2022-10-06T07:42:34.891Z,1020.24
2022-10-06T07:43:34.882Z,1020.32
2022-10-06T07:44:34.870Z,1020.40
2022-10-06T07:45:34.968Z,1020.44
2022-10-06T07:46:34.853Z,1020.34
2022-10-06T07:47:34.841Z,1020.38
2022-10-06T07:48:34.829Z,1020.40
2022-10-06T07:49:34.820Z,1020.36
2022-10-06T07:50:34.819Z,1020.40
2022-10-06T07:51:34.799Z,1020.38
2022-10-06T07:52:34.791Z,1020.40
2022-10-06T07:53:34.779Z,1020.48
2022-10-06T07:54:34.784Z,1020.51
2022-10-06T07:55:34.770Z,1020.45
2022-10-06T07:56:34.749Z,1020.55
2022-10-06T07:57:34.743Z,1020.46
2022-10-06T07:58:34.724Z,1020.50
2022-10-06T07:59:34.717Z,1020.54
2022-10-06T08:00:34.725Z,1020.58
2022-10-06T08:01:34.767Z,1020.56
2022-10-06T08:02:35.950Z,1020.66
2022-10-06T08:03:34.672Z,1020.63
2022-10-06T08:04:34.663Z,1020.69
2022-10-06T08:05:34.662Z,1020.68
2022-10-06T08:06:34.642Z,1020.70
2022-10-06T08:07:34.631Z,1020.65
2022-10-06T08:08:34.624Z,1020.68
2022-10-06T08:09:34.610Z,1020.64
2022-10-06T08:10:34.645Z,1020.81
2022-10-06T08:11:34.590Z,1020.82
2022-10-06T08:12:34.698Z,1020.85
2022-10-06T08:13:34.571Z,1020.78
2022-10-06T08:14:34.556Z,1020.90
2022-10-06T08:15:34.556Z,1020.83
2022-10-06T08:16:34.597Z,1020.97
2022-10-06T08:17:34.525Z,1020.86
2022-10-06T08:18:45.893Z,1020.90
2022-10-06T08:19:35.504Z,1020.92
2022-10-06T08:20:34.509Z,1020.99
2022-10-06T08:21:34.511Z,1020.98
2022-10-06T08:22:34.507Z,1021.02
2022-10-06T08:23:34.464Z,1020.89
2022-10-06T08:25:01.035Z,1021.00
2022-10-06T08:25:35.453Z,1021.00
2022-10-06T08:26:34.464Z,1021.08
2022-10-06T08:27:34.424Z,1021.07
2022-10-06T08:28:34.521Z,1021.04
2022-10-06T08:29:34.413Z,1021.02
2022-10-06T08:30:34.404Z,1021.10
2022-10-06T08:31:34.424Z,1021.16
2022-10-06T08:32:34.371Z,1021.18
2022-10-06T08:33:34.360Z,1021.21
2022-10-06T08:34:34.358Z,1021.13
2022-10-06T08:35:34.354Z,1021.18
2022-10-06T08:36:34.326Z,1021.21
2022-10-06T08:37:34.317Z,1021.14
2022-10-06T08:38:34.308Z,1021.30
2022-10-06T08:39:34.300Z,1021.19
2022-10-06T08:40:34.295Z,1021.28
2022-10-06T08:41:34.273Z,1021.23
2022-10-06T08:42:34.278Z,1021.36
2022-10-06T08:43:34.254Z,1021.27
2022-10-06T08:44:34.242Z,1021.48
2022-10-06T08:45:38.439Z,1021.28
2022-10-06T08:46:34.223Z,1021.33
2022-10-06T08:47:34.225Z,1021.39
2022-10-06T08:48:34.201Z,1021.51
2022-10-06T08:49:34.193Z,1021.41
2022-10-06T08:50:34.207Z,1021.50
2022-10-06T08:51:34.168Z,1021.47
2022-10-06T08:52:34.174Z,1021.45
2022-10-06T08:53:34.150Z,1021.51
2022-10-06T08:54:34.142Z,1021.51
2022-10-06T08:55:34.153Z,1021.58
2022-10-06T08:56:34.117Z,1021.54
2022-10-06T08:57:34.128Z,1021.56
2022-10-06T08:58:34.939Z,1021.59
2022-10-06T08:59:34.089Z,1021.63
2022-10-06T09:00:34.122Z,1021.65
2022-10-06T09:01:34.111Z,1021.67
2022-10-06T09:02:34.153Z,1021.70
2022-10-06T09:03:34.042Z,1021.61
2022-10-06T09:04:34.033Z,1021.70
2022-10-06T09:05:34.090Z,1021.69
2022-10-06T09:06:34.095Z,1021.65
2022-10-06T09:07:34.005Z,1021.66
2022-10-06T09:08:34.001Z,1021.68
2022-10-06T09:09:33.981Z,1021.77
2022-10-06T09:10:34.002Z,1021.75
2022-10-06T09:11:33.956Z,1021.66
2022-10-06T09:12:33.947Z,1021.71
2022-10-06T09:13:33.935Z,1021.80
2022-10-06T09:14:33.943Z,1021.78
2022-10-06T09:15:33.936Z,1021.80
2022-10-06T09:16:33.984Z,1021.94
2022-10-06T09:17:33.893Z,1021.92
2022-10-06T09:18:56.104Z,1021.90
2022-10-06T09:19:34.872Z,1021.93
2022-10-06T09:20:33.879Z,1021.87
2022-10-06T09:21:33.852Z,1021.96
2022-10-06T09:22:33.852Z,1021.98
2022-10-06T09:23:33.833Z,1022.00
2022-10-06T09:24:33.825Z,1021.97
2022-10-06T09:25:33.824Z,1021.97
2022-10-06T09:26:33.803Z,1021.97
2022-10-06T09:27:33.809Z,1021.95
2022-10-06T09:28:33.867Z,1021.98
2022-10-06T09:29:33.775Z,1021.97
2022-10-06T09:30:33.793Z,1021.98
2022-10-06T09:31:33.815Z,1022.05
2022-10-06T09:32:33.746Z,1022.12
2022-10-06T09:33:33.737Z,1022.13
2022-10-06T09:34:33.728Z,1022.12
2022-10-06T09:35:33.750Z,1022.17
2022-10-06T09:36:33.706Z,1022.20
2022-10-06T09:37:33.700Z,1022.06
2022-10-06T09:38:33.686Z,1022.11
2022-10-06T09:39:33.675Z,1022.10
2022-10-06T09:40:33.675Z,1022.19
2022-10-06T09:41:33.656Z,1022.21
2022-10-06T09:42:33.647Z,1022.24
2022-10-06T09:43:33.642Z,1022.06
2022-10-06T09:44:33.629Z,1022.22
2022-10-06T09:45:33.647Z,1022.25
2022-10-06T09:46:33.632Z,1022.29
2022-10-06T09:47:33.604Z,1022.27
2022-10-06T09:48:33.589Z,1022.27
2022-10-06T09:49:33.582Z,1022.27
2022-10-06T09:50:33.582Z,1022.27
2022-10-06T09:51:33.558Z,1022.24
2022-10-06T09:52:33.553Z,1022.32
2022-10-06T09:53:37.518Z,1022.28
2022-10-06T09:54:33.533Z,1022.30
2022-10-06T09:55:33.534Z,1022.10
2022-10-06T09:56:33.514Z,1022.29
2022-10-06T09:57:33.503Z,1022.25
2022-10-06T09:58:33.497Z,1022.28
2022-10-06T09:59:39.117Z,1022.32
2022-10-06T10:00:34.577Z,1022.33
2022-10-06T10:01:33.468Z,1022.15
2022-10-06T10:02:33.533Z,1022.16
2022-10-06T10:03:33.446Z,1022.40
2022-10-06T10:04:33.437Z,1022.36
2022-10-06T10:05:33.437Z,1022.23
2022-10-06T10:06:33.447Z,1022.40
2022-10-06T10:07:33.406Z,1022.41
2022-10-06T10:09:33.402Z,1022.46
2022-10-06T10:10:33.387Z,1022.51
2022-10-06T10:11:33.369Z,1022.50
2022-10-06T10:12:33.361Z,1022.27
2022-10-06T10:13:33.352Z,1022.44
2022-10-06T10:14:33.420Z,1022.33
2022-10-06T10:15:33.333Z,1022.62
2022-10-06T10:16:33.399Z,1022.57
2022-10-06T10:17:33.312Z,1022.58
2022-10-06T10:18:33.327Z,1022.44
2022-10-06T10:19:33.299Z,1022.58
2022-10-06T10:20:33.295Z,1022.42
2022-10-06T10:21:33.301Z,1022.55
2022-10-06T10:22:33.272Z,1022.34
2022-10-06T10:23:33.255Z,1022.51
2022-10-06T10:24:33.256Z,1022.59
2022-10-06T10:25:33.234Z,1022.39
2022-10-06T10:26:33.229Z,1022.39
2022-10-06T10:27:33.213Z,1022.41
2022-10-06T10:28:33.277Z,1022.45
2022-10-06T10:29:33.444Z,1022.45
2022-10-06T10:30:33.185Z,1022.43
2022-10-06T10:31:33.252Z,1022.51
2022-10-06T10:32:33.164Z,1022.45
2022-10-06T10:33:33.156Z,1022.53
2022-10-06T10:34:33.182Z,1022.52
2022-10-06T10:35:33.132Z,1022.55
2022-10-06T10:36:33.205Z,1022.64
2022-10-06T10:37:33.112Z,1022.49
2022-10-06T10:38:33.198Z,1022.60
2022-10-06T10:39:33.106Z,1022.58
2022-10-06T10:40:33.095Z,1022.53
2022-10-06T10:41:33.076Z,1022.51
2022-10-06T10:42:33.076Z,1022.57
2022-10-06T10:43:33.049Z,1022.51
2022-10-06T10:44:33.050Z,1022.51
2022-10-06T10:45:33.029Z,1022.51
2022-10-06T10:46:33.068Z,1022.55
2022-10-06T10:47:33.034Z,1022.58
2022-10-06T10:48:33.003Z,1022.63
2022-10-06T10:49:33.011Z,1022.67
2022-10-06T10:50:33.015Z,1022.67
2022-10-06T10:51:32.964Z,1022.58
2022-10-06T10:52:32.956Z,1022.65
2022-10-06T10:53:32.990Z,1022.67
2022-10-06T10:54:32.953Z,1022.66
2022-10-06T10:55:32.921Z,1022.73
2022-10-06T10:56:32.914Z,1022.69
2022-10-06T10:57:32.898Z,1022.68
2022-10-06T10:58:32.890Z,1022.72
2022-10-06T10:59:32.885Z,1022.71
2022-10-06T11:00:32.909Z,1022.72
2022-10-06T11:01:32.917Z,1022.69
2022-10-06T11:02:32.845Z,1022.68
2022-10-06T11:03:32.832Z,1022.69
2022-10-06T11:04:32.840Z,1022.72
2022-10-06T11:05:32.810Z,1022.69
2022-10-06T11:06:32.818Z,1022.67
2022-10-06T11:07:32.788Z,1022.68
2022-10-06T11:08:32.780Z,1022.72
2022-10-06T11:09:32.787Z,1022.71
2022-10-06T11:10:32.762Z,1022.72
2022-10-06T11:11:32.750Z,1022.70
2022-10-06T11:12:32.749Z,1022.71
2022-10-06T11:13:32.738Z,1022.69
2022-10-06T11:14:32.754Z,1022.66
2022-10-06T11:15:32.718Z,1022.73
2022-10-06T11:16:32.705Z,1022.75
2022-10-06T11:17:32.687Z,1022.76
2022-10-06T11:18:32.672Z,1022.72
2022-10-06T11:19:32.721Z,1022.74
2022-10-06T11:20:32.653Z,1022.71
2022-10-06T11:21:32.638Z,1022.82
2022-10-06T11:22:32.651Z,1022.75
2022-10-06T11:23:32.619Z,1022.78
2022-10-06T11:24:32.612Z,1022.78
2022-10-06T11:25:34.978Z,1022.81
2022-10-06T11:26:32.588Z,1022.78
2022-10-06T11:27:32.579Z,1022.81
2022-10-06T11:28:32.641Z,1022.83
2022-10-06T11:29:32.555Z,1022.84
2022-10-06T11:30:32.556Z,1022.84
2022-10-06T11:31:32.554Z,1022.83
2022-10-06T11:32:32.528Z,1022.90
2022-10-06T11:33:32.515Z,1022.84
2022-10-06T11:34:32.511Z,1022.82
2022-10-06T11:35:32.621Z,1022.89
2022-10-06T11:36:32.485Z,1022.89
2022-10-06T11:37:32.472Z,1022.90
2022-10-06T11:38:32.486Z,1022.86
2022-10-06T11:39:32.452Z,1022.91
2022-10-06T11:40:32.460Z,1022.87
2022-10-06T11:41:32.439Z,1022.86
2022-10-06T11:42:32.425Z,1022.88
2022-10-06T11:43:32.416Z,1022.97
2022-10-06T11:44:32.403Z,1022.92
2022-10-06T11:45:32.419Z,1023.01
2022-10-06T11:46:32.738Z,1022.97
2022-10-06T11:47:35.484Z,1022.98
2022-10-06T11:48:32.358Z,1023.01
2022-10-06T11:49:32.347Z,1022.96
2022-10-06T11:50:32.349Z,1022.96
2022-10-06T11:51:32.354Z,1022.96
2022-10-06T11:52:32.316Z,1023.02
2022-10-06T11:53:32.305Z,1023.04
2022-10-06T11:54:32.311Z,1023.05
2022-10-06T11:55:32.297Z,1023.01
2022-10-06T11:56:32.275Z,1023.00
2022-10-06T11:57:32.266Z,1022.98
2022-10-06T11:58:42.348Z,1023.00
2022-10-06T11:59:33.237Z,1023.04
2022-10-06T12:00:32.236Z,1022.97
2022-10-06T12:01:32.215Z,1023.02
2022-10-06T12:02:32.331Z,1022.96
2022-10-06T12:03:32.193Z,1022.99
2022-10-06T12:04:32.186Z,1022.95
2022-10-06T12:06:33.167Z,1022.95
2022-10-06T12:07:32.152Z,1022.96
2022-10-06T12:08:32.143Z,1022.99